Terminal Aerodrome Forecast
Issued by NWS Twin Cities, MN

Home | Current Version | Previous Version | Text Only | Print | Product List | Glossary Off
Versions: 1 2 3 4 5 6 7 8 9 10 11 12 13 14 15 16 17 18 19 20

000
FTUS43 KMPX 260423 AAA
TAFEAU
TAF AMD
KEAU 260423Z 2604/2624 20004KT 3SM BR SCT025
      TEMPO 2604/2608 1SM BR
     FM260800 VRB03KT 2SM BR SCT012
     FM260900 VRB03KT 2SM BR OVC005
     FM261300 24004KT 4SM BR SCT008 OVC012
     FM261500 26003KT P6SM SCT012 OVC050=

USA.gov is the U.S. government's official web portal to all federal, state and local government web resources and services.